Weldon, Arkansas
Current Conditions -  °F | °C
As of 5:56 PM on Saturday 25 Oct 2014 (Local Time) from KM19 Reporting Station
Clear Clear  
Wind Chill: 80°   Ceiling: Unl
Heat Index: 82°   Visibility: 10mi
Dew Point: 65°   Wind: 7mph
Humidity: 60%   Direction: 140°SE
Pressure: 30.01"   Gusts: NA
Location:  35.5678°N, 91.2073°W
Report Text: KM19 252256Z AUTO 14006KT 10SM CLR 27/18 A3001 RMK AO2 T02660183 SLP159
Loading
Personal Weather Stations






























Interactive Weather Map
Tropical Storm Tracking
New forecast layout! Learn more

10-Day Weather Forecast

Advertisements
Track Severe Weather on mobile